<?xml version="1.0" encoding="UTF-8" standalone="no" ?>
<gpx xmlns="http://www.topografix.com/GPX/1/1" xmlns:xsi="http://www.w3.org/2001/XMLSchema-instance" xsi:schemaLocation="http://www.topografix.com/GPX/1/1 http://www.topografix.com/GPX/1/1/gpx.xsd" version="1.1" creator="VisuGPX - https://www.visugpx.com">
  <metadata>
    <name>La falaise de Lioux</name>
  </metadata>
  <trk>
    <name><![CDATA[29/10/2019 15:34:57  La falaise de Lioux]]></name>
    <extensions>
      <line xmlns="http://www.topografix.com/GPX/gpx_style/0/2">
        <color>0000FF</color>
        <width>4</width>
      </line>
    </extensions>
    <trkseg>
      <trkpt lat="43.94658" lon="5.30145">
        <ele>319.60000610352</ele>
        <time>2019-11-01T09:55:01Z</time>
      </trkpt>
      <trkpt lat="43.94637" lon="5.30166">
        <ele>326.79998779297</ele>
        <time>2019-11-01T09:55:04Z</time>
      </trkpt>
      <trkpt lat="43.94645" lon="5.30147">
        <ele>331.79998779297</ele>
        <time>2019-11-01T09:55:05Z</time>
      </trkpt>
      <trkpt lat="43.9464" lon="5.30165">
        <ele>336.79998779297</ele>
        <time>2019-11-01T09:55:06Z</time>
      </trkpt>
      <trkpt lat="43.94618" lon="5.30148">
        <ele>342</ele>
        <time>2019-11-01T09:55:07Z</time>
      </trkpt>
      <trkpt lat="43.94618" lon="5.30137">
        <ele>351.79998779297</ele>
        <time>2019-11-01T09:55:08Z</time>
      </trkpt>
      <trkpt lat="43.9462" lon="5.30156">
        <ele>356.60000610352</ele>
        <time>2019-11-01T09:55:09Z</time>
      </trkpt>
      <trkpt lat="43.94611" lon="5.30156">
        <ele>360.39999389648</ele>
        <time>2019-11-01T09:55:10Z</time>
      </trkpt>
      <trkpt lat="43.94622" lon="5.30139">
        <ele>364.20001220703</ele>
        <time>2019-11-01T09:55:13Z</time>
      </trkpt>
      <trkpt lat="43.94626" lon="5.30132">
        <ele>364.79998779297</ele>
        <time>2019-11-01T09:55:16Z</time>
      </trkpt>
      <trkpt lat="43.94622" lon="5.30124">
        <ele>360.60000610352</ele>
        <time>2019-11-01T09:55:27Z</time>
      </trkpt>
      <trkpt lat="43.94623" lon="5.30126">
        <ele>354.79998779297</ele>
        <time>2019-11-01T09:55:29Z</time>
      </trkpt>
      <trkpt lat="43.94624" lon="5.30127">
        <ele>351.60000610352</ele>
        <time>2019-11-01T09:55:30Z</time>
      </trkpt>
      <trkpt lat="43.94625" lon="5.30127">
        <ele>348.60000610352</ele>
        <time>2019-11-01T09:55:31Z</time>
      </trkpt>
      <trkpt lat="43.94626" lon="5.30128">
        <ele>345.60000610352</ele>
        <time>2019-11-01T09:55:32Z</time>
      </trkpt>
      <trkpt lat="43.94627" lon="5.3013">
        <ele>339.60000610352</ele>
        <time>2019-11-01T09:55:34Z</time>
      </trkpt>
      <trkpt lat="43.94627" lon="5.3013">
        <ele>334.20001220703</ele>
        <time>2019-11-01T09:55:35Z</time>
      </trkpt>
      <trkpt lat="43.94628" lon="5.30132">
        <ele>329.39999389648</ele>
        <time>2019-11-01T09:55:37Z</time>
      </trkpt>
      <trkpt lat="43.9463" lon="5.30133">
        <ele>325.20001220703</ele>
        <time>2019-11-01T09:55:39Z</time>
      </trkpt>
      <trkpt lat="43.94631" lon="5.30135">
        <ele>321.20001220703</ele>
        <time>2019-11-01T09:55:41Z</time>
      </trkpt>
      <trkpt lat="43.94633" lon="5.30135">
        <ele>317.39999389648</ele>
        <time>2019-11-01T09:55:43Z</time>
      </trkpt>
      <trkpt lat="43.94636" lon="5.30136">
        <ele>313.79998779297</ele>
        <time>2019-11-01T09:55:46Z</time>
      </trkpt>
      <trkpt lat="43.94637" lon="5.30138">
        <ele>310.79998779297</ele>
        <time>2019-11-01T09:55:48Z</time>
      </trkpt>
      <trkpt lat="43.94638" lon="5.30139">
        <ele>307.79998779297</ele>
        <time>2019-11-01T09:55:50Z</time>
      </trkpt>
      <trkpt lat="43.9464" lon="5.30142">
        <ele>303.39999389648</ele>
        <time>2019-11-01T09:55:53Z</time>
      </trkpt>
      <trkpt lat="43.9464" lon="5.30155">
        <ele>299.60000610352</ele>
        <time>2019-11-01T09:55:56Z</time>
      </trkpt>
      <trkpt lat="43.9464" lon="5.3017">
        <ele>296.20001220703</ele>
        <time>2019-11-01T09:55:59Z</time>
      </trkpt>
      <trkpt lat="43.9464" lon="5.30173">
        <ele>293</ele>
        <time>2019-11-01T09:56:01Z</time>
      </trkpt>
      <trkpt lat="43.94642" lon="5.3018">
        <ele>289.20001220703</ele>
        <time>2019-11-01T09:56:05Z</time>
      </trkpt>
      <trkpt lat="43.94646" lon="5.30194">
        <ele>285.79998779297</ele>
        <time>2019-11-01T09:56:10Z</time>
      </trkpt>
      <trkpt lat="43.9465" lon="5.30206">
        <ele>281.79998779297</ele>
        <time>2019-11-01T09:56:16Z</time>
      </trkpt>
      <trkpt lat="43.94651" lon="5.30208">
        <ele>281.79998779297</ele>
        <time>2019-11-01T09:56:17Z</time>
      </trkpt>
      <trkpt lat="43.94653" lon="5.30214">
        <ele>282.20001220703</ele>
        <time>2019-11-01T09:56:20Z</time>
      </trkpt>
      <trkpt lat="43.94655" lon="5.30218">
        <ele>282.39999389648</ele>
        <time>2019-11-01T09:56:22Z</time>
      </trkpt>
      <trkpt lat="43.94667" lon="5.30234">
        <ele>282.79998779297</ele>
        <time>2019-11-01T09:56:35Z</time>
      </trkpt>
      <trkpt lat="43.94674" lon="5.3025">
        <ele>283.60000610352</ele>
        <time>2019-11-01T09:56:49Z</time>
      </trkpt>
      <trkpt lat="43.94685" lon="5.30268">
        <ele>284.39999389648</ele>
        <time>2019-11-01T09:57:03Z</time>
      </trkpt>
      <trkpt lat="43.94691" lon="5.3028">
        <ele>285</ele>
        <time>2019-11-01T09:57:13Z</time>
      </trkpt>
      <trkpt lat="43.947" lon="5.30298">
        <ele>285.79998779297</ele>
        <time>2019-11-01T09:57:27Z</time>
      </trkpt>
      <trkpt lat="43.94709" lon="5.30312">
        <ele>286.39999389648</ele>
        <time>2019-11-01T09:57:39Z</time>
      </trkpt>
      <trkpt lat="43.94719" lon="5.30324">
        <ele>286.79998779297</ele>
        <time>2019-11-01T09:57:54Z</time>
      </trkpt>
      <trkpt lat="43.94737" lon="5.30362">
        <ele>288</ele>
        <time>2019-11-01T09:58:16Z</time>
      </trkpt>
      <trkpt lat="43.94746" lon="5.30384">
        <ele>290.39999389648</ele>
        <time>2019-11-01T09:58:39Z</time>
      </trkpt>
      <trkpt lat="43.94752" lon="5.30392">
        <ele>291.60000610352</ele>
        <time>2019-11-01T09:58:51Z</time>
      </trkpt>
      <trkpt lat="43.94776" lon="5.30401">
        <ele>292.79998779297</ele>
        <time>2019-11-01T09:59:07Z</time>
      </trkpt>
      <trkpt lat="43.94791" lon="5.30406">
        <ele>294.60000610352</ele>
        <time>2019-11-01T09:59:20Z</time>
      </trkpt>
      <trkpt lat="43.94792" lon="5.30408">
        <ele>295</ele>
        <time>2019-11-01T09:59:22Z</time>
      </trkpt>
      <trkpt lat="43.94794" lon="5.3041">
        <ele>295.39999389648</ele>
        <time>2019-11-01T09:59:24Z</time>
      </trkpt>
      <trkpt lat="43.94801" lon="5.30423">
        <ele>296.39999389648</ele>
        <time>2019-11-01T09:59:39Z</time>
      </trkpt>
      <trkpt lat="43.94813" lon="5.30437">
        <ele>299.39999389648</ele>
        <time>2019-11-01T09:59:57Z</time>
      </trkpt>
      <trkpt lat="43.94822" lon="5.30452">
        <ele>302.39999389648</ele>
        <time>2019-11-01T10:00:15Z</time>
      </trkpt>
      <trkpt lat="43.94832" lon="5.30464">
        <ele>305</ele>
        <time>2019-11-01T10:00:32Z</time>
      </trkpt>
      <trkpt lat="43.94839" lon="5.30477">
        <ele>307.79998779297</ele>
        <time>2019-11-01T10:00:51Z</time>
      </trkpt>
      <trkpt lat="43.94851" lon="5.3049">
        <ele>310.39999389648</ele>
        <time>2019-11-01T10:01:10Z</time>
      </trkpt>
      <trkpt lat="43.94859" lon="5.30507">
        <ele>312.79998779297</ele>
        <time>2019-11-01T10:01:29Z</time>
      </trkpt>
      <trkpt lat="43.94863" lon="5.30512">
        <ele>314</ele>
        <time>2019-11-01T10:01:36Z</time>
      </trkpt>
      <trkpt lat="43.94867" lon="5.30535">
        <ele>317.20001220703</ele>
        <time>2019-11-01T10:01:58Z</time>
      </trkpt>
      <trkpt lat="43.94872" lon="5.30546">
        <ele>320.39999389648</ele>
        <time>2019-11-01T10:02:17Z</time>
      </trkpt>
      <trkpt lat="43.94872" lon="5.30551">
        <ele>321.60000610352</ele>
        <time>2019-11-01T10:02:24Z</time>
      </trkpt>
      <trkpt lat="43.94878" lon="5.3056">
        <ele>324.79998779297</ele>
        <time>2019-11-01T10:02:43Z</time>
      </trkpt>
      <trkpt lat="43.94879" lon="5.30577">
        <ele>327.79998779297</ele>
        <time>2019-11-01T10:03:02Z</time>
      </trkpt>
      <trkpt lat="43.94881" lon="5.30595">
        <ele>331</ele>
        <time>2019-11-01T10:03:20Z</time>
      </trkpt>
      <trkpt lat="43.94885" lon="5.30611">
        <ele>333.60000610352</ele>
        <time>2019-11-01T10:03:41Z</time>
      </trkpt>
      <trkpt lat="43.94887" lon="5.30628">
        <ele>336.39999389648</ele>
        <time>2019-11-01T10:03:57Z</time>
      </trkpt>
      <trkpt lat="43.94889" lon="5.30637">
        <ele>339.60000610352</ele>
        <time>2019-11-01T10:04:15Z</time>
      </trkpt>
      <trkpt lat="43.94893" lon="5.30646">
        <ele>341</ele>
        <time>2019-11-01T10:04:37Z</time>
      </trkpt>
      <trkpt lat="43.94899" lon="5.30664">
        <ele>343.20001220703</ele>
        <time>2019-11-01T10:04:56Z</time>
      </trkpt>
      <trkpt lat="43.94904" lon="5.30685">
        <ele>346.20001220703</ele>
        <time>2019-11-01T10:05:16Z</time>
      </trkpt>
      <trkpt lat="43.94913" lon="5.30697">
        <ele>348.39999389648</ele>
        <time>2019-11-01T10:05:30Z</time>
      </trkpt>
      <trkpt lat="43.9492" lon="5.30714">
        <ele>350.60000610352</ele>
        <time>2019-11-01T10:05:48Z</time>
      </trkpt>
      <trkpt lat="43.94924" lon="5.30722">
        <ele>351.79998779297</ele>
        <time>2019-11-01T10:05:56Z</time>
      </trkpt>
      <trkpt lat="43.9493" lon="5.30725">
        <ele>353.20001220703</ele>
        <time>2019-11-01T10:06:17Z</time>
      </trkpt>
      <trkpt lat="43.9493" lon="5.30727">
        <ele>353.60000610352</ele>
        <time>2019-11-01T10:06:43Z</time>
      </trkpt>
      <trkpt lat="43.94926" lon="5.30731">
        <ele>355</ele>
        <time>2019-11-01T10:07:15Z</time>
      </trkpt>
      <trkpt lat="43.94925" lon="5.30749">
        <ele>356.39999389648</ele>
        <time>2019-11-01T10:07:34Z</time>
      </trkpt>
      <trkpt lat="43.94931" lon="5.30765">
        <ele>359</ele>
        <time>2019-11-01T10:07:51Z</time>
      </trkpt>
      <trkpt lat="43.94933" lon="5.30779">
        <ele>361</ele>
        <time>2019-11-01T10:08:05Z</time>
      </trkpt>
      <trkpt lat="43.94936" lon="5.30802">
        <ele>364.20001220703</ele>
        <time>2019-11-01T10:08:24Z</time>
      </trkpt>
      <trkpt lat="43.94938" lon="5.30819">
        <ele>366.60000610352</ele>
        <time>2019-11-01T10:08:41Z</time>
      </trkpt>
      <trkpt lat="43.94942" lon="5.30843">
        <ele>369.60000610352</ele>
        <time>2019-11-01T10:09:02Z</time>
      </trkpt>
      <trkpt lat="43.94945" lon="5.30863">
        <ele>372.60000610352</ele>
        <time>2019-11-01T10:09:21Z</time>
      </trkpt>
      <trkpt lat="43.94945" lon="5.30888">
        <ele>375.60000610352</ele>
        <time>2019-11-01T10:09:41Z</time>
      </trkpt>
      <trkpt lat="43.9495" lon="5.30913">
        <ele>378.39999389648</ele>
        <time>2019-11-01T10:10:00Z</time>
      </trkpt>
      <trkpt lat="43.94954" lon="5.30936">
        <ele>380</ele>
        <time>2019-11-01T10:10:15Z</time>
      </trkpt>
      <trkpt lat="43.94956" lon="5.3096">
        <ele>383.20001220703</ele>
        <time>2019-11-01T10:10:36Z</time>
      </trkpt>
      <trkpt lat="43.94957" lon="5.30978">
        <ele>386.39999389648</ele>
        <time>2019-11-01T10:10:51Z</time>
      </trkpt>
      <trkpt lat="43.94963" lon="5.30992">
        <ele>389.20001220703</ele>
        <time>2019-11-01T10:11:09Z</time>
      </trkpt>
      <trkpt lat="43.94974" lon="5.31007">
        <ele>392.39999389648</ele>
        <time>2019-11-01T10:11:31Z</time>
      </trkpt>
      <trkpt lat="43.94986" lon="5.31012">
        <ele>394.39999389648</ele>
        <time>2019-11-01T10:11:51Z</time>
      </trkpt>
      <trkpt lat="43.94986" lon="5.31012">
        <ele>394.60000610352</ele>
        <time>2019-11-01T10:11:52Z</time>
      </trkpt>
      <trkpt lat="43.94991" lon="5.31017">
        <ele>395.79998779297</ele>
        <time>2019-11-01T10:12:47Z</time>
      </trkpt>
      <trkpt lat="43.94996" lon="5.31028">
        <ele>398.39999389648</ele>
        <time>2019-11-01T10:13:05Z</time>
      </trkpt>
      <trkpt lat="43.95004" lon="5.3104">
        <ele>401.60000610352</ele>
        <time>2019-11-01T10:13:25Z</time>
      </trkpt>
      <trkpt lat="43.95027" lon="5.31041">
        <ele>404.60000610352</ele>
        <time>2019-11-01T10:13:45Z</time>
      </trkpt>
      <trkpt lat="43.9504" lon="5.31037">
        <ele>406</ele>
        <time>2019-11-01T10:13:58Z</time>
      </trkpt>
      <trkpt lat="43.95056" lon="5.31038">
        <ele>408</ele>
        <time>2019-11-01T10:14:21Z</time>
      </trkpt>
      <trkpt lat="43.95071" lon="5.31037">
        <ele>409.60000610352</ele>
        <time>2019-11-01T10:14:39Z</time>
      </trkpt>
      <trkpt lat="43.9509" lon="5.3103">
        <ele>411.60000610352</ele>
        <time>2019-11-01T10:15:01Z</time>
      </trkpt>
      <trkpt lat="43.951" lon="5.3103">
        <ele>413.39999389648</ele>
        <time>2019-11-01T10:15:18Z</time>
      </trkpt>
      <trkpt lat="43.9511" lon="5.31029">
        <ele>416.60000610352</ele>
        <time>2019-11-01T10:15:37Z</time>
      </trkpt>
      <trkpt lat="43.9512" lon="5.31032">
        <ele>419.60000610352</ele>
        <time>2019-11-01T10:15:55Z</time>
      </trkpt>
      <trkpt lat="43.9513" lon="5.31037">
        <ele>422.20001220703</ele>
        <time>2019-11-01T10:16:12Z</time>
      </trkpt>
      <trkpt lat="43.95138" lon="5.31047">
        <ele>425.20001220703</ele>
        <time>2019-11-01T10:16:29Z</time>
      </trkpt>
      <trkpt lat="43.95143" lon="5.31063">
        <ele>427.79998779297</ele>
        <time>2019-11-01T10:16:47Z</time>
      </trkpt>
      <trkpt lat="43.95149" lon="5.31053">
        <ele>429.79998779297</ele>
        <time>2019-11-01T10:17:00Z</time>
      </trkpt>
      <trkpt lat="43.95155" lon="5.31034">
        <ele>430.79998779297</ele>
        <time>2019-11-01T10:17:17Z</time>
      </trkpt>
      <trkpt lat="43.9516" lon="5.31024">
        <ele>431.20001220703</ele>
        <time>2019-11-01T10:17:31Z</time>
      </trkpt>
      <trkpt lat="43.9517" lon="5.31012">
        <ele>430.60000610352</ele>
        <time>2019-11-01T10:17:51Z</time>
      </trkpt>
      <trkpt lat="43.95172" lon="5.31011">
        <ele>431</ele>
        <time>2019-11-01T10:18:12Z</time>
      </trkpt>
      <trkpt lat="43.9517" lon="5.31014">
        <ele>431.39999389648</ele>
        <time>2019-11-01T10:18:46Z</time>
      </trkpt>
      <trkpt lat="43.9516" lon="5.31019">
        <ele>431.79998779297</ele>
        <time>2019-11-01T10:19:03Z</time>
      </trkpt>
      <trkpt lat="43.9516" lon="5.31021">
        <ele>432.39999389648</ele>
        <time>2019-11-01T10:19:24Z</time>
      </trkpt>
      <trkpt lat="43.95157" lon="5.31037">
        <ele>433.20001220703</ele>
        <time>2019-11-01T10:19:40Z</time>
      </trkpt>
      <trkpt lat="43.95154" lon="5.31049">
        <ele>434.20001220703</ele>
        <time>2019-11-01T10:19:58Z</time>
      </trkpt>
      <trkpt lat="43.95153" lon="5.31056">
        <ele>434.20001220703</ele>
        <time>2019-11-01T10:20:04Z</time>
      </trkpt>
      <trkpt lat="43.95149" lon="5.31074">
        <ele>434.39999389648</ele>
        <time>2019-11-01T10:20:23Z</time>
      </trkpt>
      <trkpt lat="43.95149" lon="5.3107">
        <ele>434.60000610352</ele>
        <time>2019-11-01T10:20:27Z</time>
      </trkpt>
      <trkpt lat="43.95149" lon="5.31065">
        <ele>434.60000610352</ele>
        <time>2019-11-01T10:20:49Z</time>
      </trkpt>
      <trkpt lat="43.95152" lon="5.31055">
        <ele>435.20001220703</ele>
        <time>2019-11-01T10:21:24Z</time>
      </trkpt>
      <trkpt lat="43.95155" lon="5.31044">
        <ele>436</ele>
        <time>2019-11-01T10:21:36Z</time>
      </trkpt>
      <trkpt lat="43.95158" lon="5.3103">
        <ele>436.39999389648</ele>
        <time>2019-11-01T10:21:47Z</time>
      </trkpt>
      <trkpt lat="43.95173" lon="5.31011">
        <ele>436.39999389648</ele>
        <time>2019-11-01T10:22:06Z</time>
      </trkpt>
      <trkpt lat="43.95173" lon="5.31006">
        <ele>436.39999389648</ele>
        <time>2019-11-01T10:22:10Z</time>
      </trkpt>
      <trkpt lat="43.95168" lon="5.31003">
        <ele>436.60000610352</ele>
        <time>2019-11-01T10:22:25Z</time>
      </trkpt>
      <trkpt lat="43.95172" lon="5.31004">
        <ele>437.20001220703</ele>
        <time>2019-11-01T10:22:41Z</time>
      </trkpt>
      <trkpt lat="43.95175" lon="5.31005">
        <ele>437.79998779297</ele>
        <time>2019-11-01T10:22:56Z</time>
      </trkpt>
      <trkpt lat="43.95176" lon="5.31008">
        <ele>438</ele>
        <time>2019-11-01T10:23:05Z</time>
      </trkpt>
      <trkpt lat="43.95162" lon="5.31029">
        <ele>438.20001220703</ele>
        <time>2019-11-01T10:23:22Z</time>
      </trkpt>
      <trkpt lat="43.95161" lon="5.31032">
        <ele>438.20001220703</ele>
        <time>2019-11-01T10:23:24Z</time>
      </trkpt>
      <trkpt lat="43.95159" lon="5.31051">
        <ele>440.20001220703</ele>
        <time>2019-11-01T10:23:40Z</time>
      </trkpt>
      <trkpt lat="43.95161" lon="5.31069">
        <ele>442.39999389648</ele>
        <time>2019-11-01T10:23:54Z</time>
      </trkpt>
      <trkpt lat="43.95161" lon="5.31078">
        <ele>444.60000610352</ele>
        <time>2019-11-01T10:24:11Z</time>
      </trkpt>
      <trkpt lat="43.95163" lon="5.31086">
        <ele>445</ele>
        <time>2019-11-01T10:24:19Z</time>
      </trkpt>
      <trkpt lat="43.95169" lon="5.31102">
        <ele>445.79998779297</ele>
        <time>2019-11-01T10:24:32Z</time>
      </trkpt>
      <trkpt lat="43.95181" lon="5.31125">
        <ele>445.79998779297</ele>
        <time>2019-11-01T10:24:53Z</time>
      </trkpt>
      <trkpt lat="43.95187" lon="5.31139">
        <ele>446.39999389648</ele>
        <time>2019-11-01T10:25:07Z</time>
      </trkpt>
      <trkpt lat="43.95193" lon="5.31152">
        <ele>447.39999389648</ele>
        <time>2019-11-01T10:25:17Z</time>
      </trkpt>
      <trkpt lat="43.95195" lon="5.31156">
        <ele>447.60000610352</ele>
        <time>2019-11-01T10:25:20Z</time>
      </trkpt>
      <trkpt lat="43.95208" lon="5.31169">
        <ele>449.39999389648</ele>
        <time>2019-11-01T10:25:35Z</time>
      </trkpt>
      <trkpt lat="43.95214" lon="5.31171">
        <ele>450.20001220703</ele>
        <time>2019-11-01T10:25:40Z</time>
      </trkpt>
      <trkpt lat="43.9523" lon="5.31183">
        <ele>451</ele>
        <time>2019-11-01T10:25:55Z</time>
      </trkpt>
      <trkpt lat="43.95252" lon="5.31197">
        <ele>451.39999389648</ele>
        <time>2019-11-01T10:26:14Z</time>
      </trkpt>
      <trkpt lat="43.95269" lon="5.31207">
        <ele>452.79998779297</ele>
        <time>2019-11-01T10:26:30Z</time>
      </trkpt>
      <trkpt lat="43.9529" lon="5.31219">
        <ele>454.20001220703</ele>
        <time>2019-11-01T10:26:49Z</time>
      </trkpt>
      <trkpt lat="43.95314" lon="5.31232">
        <ele>455.60000610352</ele>
        <time>2019-11-01T10:27:11Z</time>
      </trkpt>
      <trkpt lat="43.95321" lon="5.31239">
        <ele>456.20001220703</ele>
        <time>2019-11-01T10:27:21Z</time>
      </trkpt>
      <trkpt lat="43.95329" lon="5.31244">
        <ele>456.39999389648</ele>
        <time>2019-11-01T10:27:29Z</time>
      </trkpt>
      <trkpt lat="43.95338" lon="5.31248">
        <ele>457</ele>
        <time>2019-11-01T10:27:37Z</time>
      </trkpt>
      <trkpt lat="43.9534" lon="5.3125">
        <ele>457.20001220703</ele>
        <time>2019-11-01T10:27:39Z</time>
      </trkpt>
      <trkpt lat="43.95358" lon="5.31261">
        <ele>458.20001220703</ele>
        <time>2019-11-01T10:27:56Z</time>
      </trkpt>
      <trkpt lat="43.95372" lon="5.31269">
        <ele>458.79998779297</ele>
        <time>2019-11-01T10:28:11Z</time>
      </trkpt>
      <trkpt lat="43.95392" lon="5.31281">
        <ele>459.79998779297</ele>
        <time>2019-11-01T10:28:29Z</time>
      </trkpt>
      <trkpt lat="43.95406" lon="5.31292">
        <ele>460.39999389648</ele>
        <time>2019-11-01T10:28:44Z</time>
      </trkpt>
      <trkpt lat="43.9542" lon="5.31303">
        <ele>461.60000610352</ele>
        <time>2019-11-01T10:29:00Z</time>
      </trkpt>
      <trkpt lat="43.95434" lon="5.31316">
        <ele>462.60000610352</ele>
        <time>2019-11-01T10:29:16Z</time>
      </trkpt>
      <trkpt lat="43.95448" lon="5.31327">
        <ele>463.60000610352</ele>
        <time>2019-11-01T10:29:32Z</time>
      </trkpt>
      <trkpt lat="43.95462" lon="5.31341">
        <ele>464.60000610352</ele>
        <time>2019-11-01T10:29:48Z</time>
      </trkpt>
      <trkpt lat="43.95473" lon="5.31351">
        <ele>466.39999389648</ele>
        <time>2019-11-01T10:30:02Z</time>
      </trkpt>
      <trkpt lat="43.95492" lon="5.3137">
        <ele>468</ele>
        <time>2019-11-01T10:30:22Z</time>
      </trkpt>
      <trkpt lat="43.95505" lon="5.31384">
        <ele>469.20001220703</ele>
        <time>2019-11-01T10:30:38Z</time>
      </trkpt>
      <trkpt lat="43.95521" lon="5.31398">
        <ele>471</ele>
        <time>2019-11-01T10:30:56Z</time>
      </trkpt>
      <trkpt lat="43.95523" lon="5.31399">
        <ele>471</ele>
        <time>2019-11-01T10:30:58Z</time>
      </trkpt>
      <trkpt lat="43.95538" lon="5.31414">
        <ele>472.39999389648</ele>
        <time>2019-11-01T10:31:15Z</time>
      </trkpt>
      <trkpt lat="43.95558" lon="5.3143">
        <ele>474</ele>
        <time>2019-11-01T10:31:38Z</time>
      </trkpt>
      <trkpt lat="43.9557" lon="5.31443">
        <ele>475.79998779297</ele>
        <time>2019-11-01T10:31:57Z</time>
      </trkpt>
      <trkpt lat="43.95582" lon="5.31452">
        <ele>477.20001220703</ele>
        <time>2019-11-01T10:32:13Z</time>
      </trkpt>
      <trkpt lat="43.95593" lon="5.31459">
        <ele>478.60000610352</ele>
        <time>2019-11-01T10:32:32Z</time>
      </trkpt>
      <trkpt lat="43.95604" lon="5.31466">
        <ele>479.79998779297</ele>
        <time>2019-11-01T10:32:48Z</time>
      </trkpt>
      <trkpt lat="43.95615" lon="5.31476">
        <ele>481.20001220703</ele>
        <time>2019-11-01T10:33:03Z</time>
      </trkpt>
      <trkpt lat="43.95612" lon="5.31481">
        <ele>482.39999389648</ele>
        <time>2019-11-01T10:33:13Z</time>
      </trkpt>
      <trkpt lat="43.95612" lon="5.31481">
        <ele>483.20001220703</ele>
        <time>2019-11-01T10:34:06Z</time>
      </trkpt>
      <trkpt lat="43.95612" lon="5.3148">
        <ele>484.79998779297</ele>
        <time>2019-11-01T10:35:42Z</time>
      </trkpt>
      <trkpt lat="43.95611" lon="5.3148">
        <ele>486</ele>
        <time>2019-11-01T10:37:07Z</time>
      </trkpt>
      <trkpt lat="43.95611" lon="5.3148">
        <ele>487.79998779297</ele>
        <time>2019-11-01T10:38:52Z</time>
      </trkpt>
      <trkpt lat="43.95613" lon="5.31478">
        <ele>488.60000610352</ele>
        <time>2019-11-01T10:39:48Z</time>
      </trkpt>
      <trkpt lat="43.95614" lon="5.31477">
        <ele>489.60000610352</ele>
        <time>2019-11-01T10:40:51Z</time>
      </trkpt>
      <trkpt lat="43.95614" lon="5.31484">
        <ele>491</ele>
        <time>2019-11-01T10:42:07Z</time>
      </trkpt>
      <trkpt lat="43.95613" lon="5.31487">
        <ele>491.39999389648</ele>
        <time>2019-11-01T10:42:58Z</time>
      </trkpt>
      <trkpt lat="43.95611" lon="5.31489">
        <ele>492.39999389648</ele>
        <time>2019-11-01T10:43:16Z</time>
      </trkpt>
      <trkpt lat="43.95606" lon="5.31501">
        <ele>493.20001220703</ele>
        <time>2019-11-01T10:43:33Z</time>
      </trkpt>
      <trkpt lat="43.95601" lon="5.31506">
        <ele>493.20001220703</ele>
        <time>2019-11-01T10:43:38Z</time>
      </trkpt>
      <trkpt lat="43.95589" lon="5.3153">
        <ele>494.20001220703</ele>
        <time>2019-11-01T10:43:58Z</time>
      </trkpt>
      <trkpt lat="43.9558" lon="5.31549">
        <ele>495.79998779297</ele>
        <time>2019-11-01T10:44:13Z</time>
      </trkpt>
      <trkpt lat="43.95578" lon="5.31552">
        <ele>496.20001220703</ele>
        <time>2019-11-01T10:44:16Z</time>
      </trkpt>
      <trkpt lat="43.95573" lon="5.31563">
        <ele>497.60000610352</ele>
        <time>2019-11-01T10:44:26Z</time>
      </trkpt>
      <trkpt lat="43.95569" lon="5.31567">
        <ele>498.20001220703</ele>
        <time>2019-11-01T10:44:31Z</time>
      </trkpt>
      <trkpt lat="43.95566" lon="5.31572">
        <ele>499.20001220703</ele>
        <time>2019-11-01T10:44:37Z</time>
      </trkpt>
      <trkpt lat="43.95562" lon="5.3158">
        <ele>500</ele>
        <time>2019-11-01T10:44:43Z</time>
      </trkpt>
      <trkpt lat="43.95555" lon="5.31601">
        <ele>503.20001220703</ele>
        <time>2019-11-01T10:45:01Z</time>
      </trkpt>
      <trkpt lat="43.9554" lon="5.31605">
        <ele>505.60000610352</ele>
        <time>2019-11-01T10:45:18Z</time>
      </trkpt>
      <trkpt lat="43.95524" lon="5.31598">
        <ele>508</ele>
        <time>2019-11-01T10:45:38Z</time>
      </trkpt>
      <trkpt lat="43.95508" lon="5.3159">
        <ele>510.20001220703</ele>
        <time>2019-11-01T10:45:56Z</time>
      </trkpt>
      <trkpt lat="43.95495" lon="5.3158">
        <ele>511.79998779297</ele>
        <time>2019-11-01T10:46:12Z</time>
      </trkpt>
      <trkpt lat="43.95482" lon="5.31568">
        <ele>514.20001220703</ele>
        <time>2019-11-01T10:46:29Z</time>
      </trkpt>
      <trkpt lat="43.95473" lon="5.31559">
        <ele>515.59997558594</ele>
        <time>2019-11-01T10:46:41Z</time>
      </trkpt>
      <trkpt lat="43.95457" lon="5.31544">
        <ele>518</ele>
        <time>2019-11-01T10:47:00Z</time>
      </trkpt>
      <trkpt lat="43.9545" lon="5.31539">
        <ele>518.79998779297</ele>
        <time>2019-11-01T10:47:08Z</time>
      </trkpt>
      <trkpt lat="43.95443" lon="5.31537">
        <ele>519.59997558594</ele>
        <time>2019-11-01T10:47:16Z</time>
      </trkpt>
      <trkpt lat="43.95433" lon="5.31544">
        <ele>521</ele>
        <time>2019-11-01T10:47:27Z</time>
      </trkpt>
      <trkpt lat="43.9543" lon="5.31546">
        <ele>522.20001220703</ele>
        <time>2019-11-01T10:47:44Z</time>
      </trkpt>
      <trkpt lat="43.9543" lon="5.31545">
        <ele>522.40002441406</ele>
        <time>2019-11-01T10:47:45Z</time>
      </trkpt>
      <trkpt lat="43.95418" lon="5.31538">
        <ele>522.20001220703</ele>
        <time>2019-11-01T10:47:59Z</time>
      </trkpt>
      <trkpt lat="43.95414" lon="5.31529">
        <ele>522</ele>
        <time>2019-11-01T10:48:13Z</time>
      </trkpt>
      <trkpt lat="43.95408" lon="5.31521">
        <ele>522</ele>
        <time>2019-11-01T10:48:20Z</time>
      </trkpt>
      <trkpt lat="43.95394" lon="5.31497">
        <ele>521.59997558594</ele>
        <time>2019-11-01T10:48:41Z</time>
      </trkpt>
      <trkpt lat="43.95384" lon="5.31476">
        <ele>521.59997558594</ele>
        <time>2019-11-01T10:48:59Z</time>
      </trkpt>
      <trkpt lat="43.95377" lon="5.31466">
        <ele>521.20001220703</ele>
        <time>2019-11-01T10:49:16Z</time>
      </trkpt>
      <trkpt lat="43.95359" lon="5.31455">
        <ele>519.79998779297</ele>
        <time>2019-11-01T10:49:37Z</time>
      </trkpt>
      <trkpt lat="43.95343" lon="5.3145">
        <ele>517.59997558594</ele>
        <time>2019-11-01T10:49:55Z</time>
      </trkpt>
      <trkpt lat="43.95325" lon="5.31447">
        <ele>515.79998779297</ele>
        <time>2019-11-01T10:50:15Z</time>
      </trkpt>
      <trkpt lat="43.9531" lon="5.31445">
        <ele>514</ele>
        <time>2019-11-01T10:50:31Z</time>
      </trkpt>
      <trkpt lat="43.95294" lon="5.31436">
        <ele>511.79998779297</ele>
        <time>2019-11-01T10:50:49Z</time>
      </trkpt>
      <trkpt lat="43.95286" lon="5.31429">
        <ele>510.20001220703</ele>
        <time>2019-11-01T10:51:04Z</time>
      </trkpt>
      <trkpt lat="43.95277" lon="5.3142">
        <ele>509.60000610352</ele>
        <time>2019-11-01T10:51:26Z</time>
      </trkpt>
      <trkpt lat="43.9526" lon="5.31403">
        <ele>507.39999389648</ele>
        <time>2019-11-01T10:51:47Z</time>
      </trkpt>
      <trkpt lat="43.95247" lon="5.31393">
        <ele>505.60000610352</ele>
        <time>2019-11-01T10:52:05Z</time>
      </trkpt>
      <trkpt lat="43.95237" lon="5.31379">
        <ele>504</ele>
        <time>2019-11-01T10:52:22Z</time>
      </trkpt>
      <trkpt lat="43.9523" lon="5.31365">
        <ele>502.79998779297</ele>
        <time>2019-11-01T10:52:40Z</time>
      </trkpt>
      <trkpt lat="43.95227" lon="5.31347">
        <ele>502.79998779297</ele>
        <time>2019-11-01T10:52:55Z</time>
      </trkpt>
      <trkpt lat="43.95221" lon="5.3134">
        <ele>502.60000610352</ele>
        <time>2019-11-01T10:53:04Z</time>
      </trkpt>
      <trkpt lat="43.95208" lon="5.31329">
        <ele>501</ele>
        <time>2019-11-01T10:53:22Z</time>
      </trkpt>
      <trkpt lat="43.95195" lon="5.31318">
        <ele>499.60000610352</ele>
        <time>2019-11-01T10:53:41Z</time>
      </trkpt>
      <trkpt lat="43.95184" lon="5.31305">
        <ele>498</ele>
        <time>2019-11-01T10:53:57Z</time>
      </trkpt>
      <trkpt lat="43.95174" lon="5.3129">
        <ele>496.60000610352</ele>
        <time>2019-11-01T10:54:16Z</time>
      </trkpt>
      <trkpt lat="43.95164" lon="5.31281">
        <ele>495.39999389648</ele>
        <time>2019-11-01T10:54:33Z</time>
      </trkpt>
      <trkpt lat="43.95158" lon="5.31274">
        <ele>495.20001220703</ele>
        <time>2019-11-01T10:55:06Z</time>
      </trkpt>
      <trkpt lat="43.95158" lon="5.31275">
        <ele>494.79998779297</ele>
        <time>2019-11-01T10:55:36Z</time>
      </trkpt>
      <trkpt lat="43.95158" lon="5.31274">
        <ele>495.60000610352</ele>
        <time>2019-11-01T10:56:33Z</time>
      </trkpt>
      <trkpt lat="43.95152" lon="5.31263">
        <ele>495.60000610352</ele>
        <time>2019-11-01T10:57:02Z</time>
      </trkpt>
      <trkpt lat="43.95138" lon="5.31247">
        <ele>494.20001220703</ele>
        <time>2019-11-01T10:57:27Z</time>
      </trkpt>
      <trkpt lat="43.95132" lon="5.31236">
        <ele>493.20001220703</ele>
        <time>2019-11-01T10:57:42Z</time>
      </trkpt>
      <trkpt lat="43.95122" lon="5.31223">
        <ele>491.79998779297</ele>
        <time>2019-11-01T10:58:00Z</time>
      </trkpt>
      <trkpt lat="43.95112" lon="5.31213">
        <ele>490.20001220703</ele>
        <time>2019-11-01T10:58:16Z</time>
      </trkpt>
      <trkpt lat="43.95101" lon="5.31204">
        <ele>488.60000610352</ele>
        <time>2019-11-01T10:58:33Z</time>
      </trkpt>
      <trkpt lat="43.95092" lon="5.31194">
        <ele>487.60000610352</ele>
        <time>2019-11-01T10:58:50Z</time>
      </trkpt>
      <trkpt lat="43.95081" lon="5.31189">
        <ele>486.60000610352</ele>
        <time>2019-11-01T10:59:05Z</time>
      </trkpt>
      <trkpt lat="43.9507" lon="5.31184">
        <ele>485.39999389648</ele>
        <time>2019-11-01T10:59:21Z</time>
      </trkpt>
      <trkpt lat="43.95062" lon="5.31175">
        <ele>484.39999389648</ele>
        <time>2019-11-01T10:59:36Z</time>
      </trkpt>
      <trkpt lat="43.95051" lon="5.31162">
        <ele>483.60000610352</ele>
        <time>2019-11-01T10:59:53Z</time>
      </trkpt>
      <trkpt lat="43.95039" lon="5.31141">
        <ele>482.20001220703</ele>
        <time>2019-11-01T11:00:15Z</time>
      </trkpt>
      <trkpt lat="43.95038" lon="5.3114">
        <ele>482.20001220703</ele>
        <time>2019-11-01T11:00:16Z</time>
      </trkpt>
      <trkpt lat="43.95034" lon="5.31119">
        <ele>481</ele>
        <time>2019-11-01T11:00:36Z</time>
      </trkpt>
      <trkpt lat="43.95024" lon="5.31107">
        <ele>480.20001220703</ele>
        <time>2019-11-01T11:00:52Z</time>
      </trkpt>
      <trkpt lat="43.95011" lon="5.31097">
        <ele>478.20001220703</ele>
        <time>2019-11-01T11:01:10Z</time>
      </trkpt>
      <trkpt lat="43.9501" lon="5.31086">
        <ele>477.39999389648</ele>
        <time>2019-11-01T11:01:22Z</time>
      </trkpt>
      <trkpt lat="43.95006" lon="5.31068">
        <ele>476.20001220703</ele>
        <time>2019-11-01T11:01:40Z</time>
      </trkpt>
      <trkpt lat="43.95001" lon="5.31051">
        <ele>474</ele>
        <time>2019-11-01T11:01:57Z</time>
      </trkpt>
      <trkpt lat="43.94994" lon="5.31035">
        <ele>472.60000610352</ele>
        <time>2019-11-01T11:02:14Z</time>
      </trkpt>
      <trkpt lat="43.94989" lon="5.31023">
        <ele>471.20001220703</ele>
        <time>2019-11-01T11:02:28Z</time>
      </trkpt>
      <trkpt lat="43.94977" lon="5.31015">
        <ele>469.60000610352</ele>
        <time>2019-11-01T11:02:45Z</time>
      </trkpt>
      <trkpt lat="43.94967" lon="5.31008">
        <ele>468.60000610352</ele>
        <time>2019-11-01T11:02:59Z</time>
      </trkpt>
      <trkpt lat="43.94954" lon="5.30999">
        <ele>466.39999389648</ele>
        <time>2019-11-01T11:03:18Z</time>
      </trkpt>
      <trkpt lat="43.94947" lon="5.30991">
        <ele>464.20001220703</ele>
        <time>2019-11-01T11:03:34Z</time>
      </trkpt>
      <trkpt lat="43.94943" lon="5.30981">
        <ele>462.79998779297</ele>
        <time>2019-11-01T11:03:54Z</time>
      </trkpt>
      <trkpt lat="43.94942" lon="5.3098">
        <ele>462.79998779297</ele>
        <time>2019-11-01T11:03:55Z</time>
      </trkpt>
      <trkpt lat="43.94931" lon="5.30974">
        <ele>462.20001220703</ele>
        <time>2019-11-01T11:04:11Z</time>
      </trkpt>
      <trkpt lat="43.94927" lon="5.3096">
        <ele>463.79998779297</ele>
        <time>2019-11-01T11:04:29Z</time>
      </trkpt>
      <trkpt lat="43.94927" lon="5.30944">
        <ele>466.39999389648</ele>
        <time>2019-11-01T11:04:47Z</time>
      </trkpt>
      <trkpt lat="43.94926" lon="5.30928">
        <ele>467.79998779297</ele>
        <time>2019-11-01T11:05:03Z</time>
      </trkpt>
      <trkpt lat="43.94925" lon="5.30924">
        <ele>468</ele>
        <time>2019-11-01T11:05:06Z</time>
      </trkpt>
      <trkpt lat="43.9492" lon="5.30905">
        <ele>468.79998779297</ele>
        <time>2019-11-01T11:05:24Z</time>
      </trkpt>
      <trkpt lat="43.94915" lon="5.3088">
        <ele>469.20001220703</ele>
        <time>2019-11-01T11:05:44Z</time>
      </trkpt>
      <trkpt lat="43.94913" lon="5.3087">
        <ele>469.20001220703</ele>
        <time>2019-11-01T11:05:59Z</time>
      </trkpt>
      <trkpt lat="43.9491" lon="5.30865">
        <ele>469</ele>
        <time>2019-11-01T11:06:15Z</time>
      </trkpt>
      <trkpt lat="43.9491" lon="5.30861">
        <ele>468.79998779297</ele>
        <time>2019-11-01T11:06:45Z</time>
      </trkpt>
      <trkpt lat="43.94904" lon="5.30845">
        <ele>468.39999389648</ele>
        <time>2019-11-01T11:07:04Z</time>
      </trkpt>
      <trkpt lat="43.94901" lon="5.30832">
        <ele>468.39999389648</ele>
        <time>2019-11-01T11:07:21Z</time>
      </trkpt>
      <trkpt lat="43.94899" lon="5.30816">
        <ele>468.39999389648</ele>
        <time>2019-11-01T11:07:36Z</time>
      </trkpt>
      <trkpt lat="43.94897" lon="5.30799">
        <ele>468.79998779297</ele>
        <time>2019-11-01T11:07:57Z</time>
      </trkpt>
      <trkpt lat="43.94896" lon="5.30781">
        <ele>469.20001220703</ele>
        <time>2019-11-01T11:08:13Z</time>
      </trkpt>
      <trkpt lat="43.94891" lon="5.3076">
        <ele>469.39999389648</ele>
        <time>2019-11-01T11:08:32Z</time>
      </trkpt>
      <trkpt lat="43.94887" lon="5.30757">
        <ele>469.20001220703</ele>
        <time>2019-11-01T11:08:38Z</time>
      </trkpt>
      <trkpt lat="43.94878" lon="5.30739">
        <ele>467.79998779297</ele>
        <time>2019-11-01T11:08:57Z</time>
      </trkpt>
      <trkpt lat="43.94867" lon="5.30729">
        <ele>467.20001220703</ele>
        <time>2019-11-01T11:09:14Z</time>
      </trkpt>
      <trkpt lat="43.94866" lon="5.30712">
        <ele>466.39999389648</ele>
        <time>2019-11-01T11:09:32Z</time>
      </trkpt>
      <trkpt lat="43.94859" lon="5.30696">
        <ele>465.20001220703</ele>
        <time>2019-11-01T11:09:50Z</time>
      </trkpt>
      <trkpt lat="43.94853" lon="5.30685">
        <ele>464.79998779297</ele>
        <time>2019-11-01T11:10:01Z</time>
      </trkpt>
      <trkpt lat="43.94844" lon="5.30667">
        <ele>463.60000610352</ele>
        <time>2019-11-01T11:10:21Z</time>
      </trkpt>
      <trkpt lat="43.94839" lon="5.30651">
        <ele>463</ele>
        <time>2019-11-01T11:10:39Z</time>
      </trkpt>
      <trkpt lat="43.94833" lon="5.3064">
        <ele>462.79998779297</ele>
        <time>2019-11-01T11:10:54Z</time>
      </trkpt>
      <trkpt lat="43.94827" lon="5.3062">
        <ele>462.20001220703</ele>
        <time>2019-11-01T11:11:13Z</time>
      </trkpt>
      <trkpt lat="43.94817" lon="5.30598">
        <ele>461.60000610352</ele>
        <time>2019-11-01T11:11:36Z</time>
      </trkpt>
      <trkpt lat="43.94815" lon="5.30578">
        <ele>460.60000610352</ele>
        <time>2019-11-01T11:11:55Z</time>
      </trkpt>
      <trkpt lat="43.94814" lon="5.30557">
        <ele>460.39999389648</ele>
        <time>2019-11-01T11:12:16Z</time>
      </trkpt>
      <trkpt lat="43.94808" lon="5.30538">
        <ele>460.60000610352</ele>
        <time>2019-11-01T11:12:37Z</time>
      </trkpt>
      <trkpt lat="43.948" lon="5.30525">
        <ele>460.60000610352</ele>
        <time>2019-11-01T11:12:57Z</time>
      </trkpt>
      <trkpt lat="43.94793" lon="5.30525">
        <ele>460</ele>
        <time>2019-11-01T11:13:15Z</time>
      </trkpt>
      <trkpt lat="43.94799" lon="5.30523">
        <ele>460</ele>
        <time>2019-11-01T11:13:31Z</time>
      </trkpt>
      <trkpt lat="43.94794" lon="5.30522">
        <ele>460</ele>
        <time>2019-11-01T11:13:46Z</time>
      </trkpt>
      <trkpt lat="43.94793" lon="5.30523">
        <ele>459.20001220703</ele>
        <time>2019-11-01T11:14:16Z</time>
      </trkpt>
      <trkpt lat="43.94791" lon="5.30523">
        <ele>459.20001220703</ele>
        <time>2019-11-01T11:15:16Z</time>
      </trkpt>
      <trkpt lat="43.94791" lon="5.3052">
        <ele>459.60000610352</ele>
        <time>2019-11-01T11:16:54Z</time>
      </trkpt>
      <trkpt lat="43.94798" lon="5.30516">
        <ele>460.20001220703</ele>
        <time>2019-11-01T11:17:10Z</time>
      </trkpt>
      <trkpt lat="43.94802" lon="5.30514">
        <ele>460.79998779297</ele>
        <time>2019-11-01T11:17:31Z</time>
      </trkpt>
      <trkpt lat="43.94804" lon="5.30511">
        <ele>460.79998779297</ele>
        <time>2019-11-01T11:17:56Z</time>
      </trkpt>
      <trkpt lat="43.94801" lon="5.30506">
        <ele>460.79998779297</ele>
        <time>2019-11-01T11:18:36Z</time>
      </trkpt>
      <trkpt lat="43.94798" lon="5.30495">
        <ele>460</ele>
        <time>2019-11-01T11:18:54Z</time>
      </trkpt>
      <trkpt lat="43.94793" lon="5.30483">
        <ele>458.79998779297</ele>
        <time>2019-11-01T11:19:15Z</time>
      </trkpt>
      <trkpt lat="43.9479" lon="5.30483">
        <ele>458.39999389648</ele>
        <time>2019-11-01T11:19:35Z</time>
      </trkpt>
      <trkpt lat="43.9479" lon="5.30483">
        <ele>458.79998779297</ele>
        <time>2019-11-01T11:22:43Z</time>
      </trkpt>
      <trkpt lat="43.94791" lon="5.30485">
        <ele>461.79998779297</ele>
        <time>2019-11-01T11:35:14Z</time>
      </trkpt>
      <trkpt lat="43.9479" lon="5.30482">
        <ele>462.60000610352</ele>
        <time>2019-11-01T11:42:13Z</time>
      </trkpt>
      <trkpt lat="43.94784" lon="5.30474">
        <ele>462.60000610352</ele>
        <time>2019-11-01T11:42:29Z</time>
      </trkpt>
      <trkpt lat="43.94783" lon="5.30472">
        <ele>462.39999389648</ele>
        <time>2019-11-01T11:42:31Z</time>
      </trkpt>
      <trkpt lat="43.94774" lon="5.3046">
        <ele>461.20001220703</ele>
        <time>2019-11-01T11:42:49Z</time>
      </trkpt>
      <trkpt lat="43.94769" lon="5.30456">
        <ele>460.60000610352</ele>
        <time>2019-11-01T11:43:13Z</time>
      </trkpt>
      <trkpt lat="43.94761" lon="5.30448">
        <ele>459.20001220703</ele>
        <time>2019-11-01T11:43:30Z</time>
      </trkpt>
      <trkpt lat="43.9476" lon="5.30447">
        <ele>459.20001220703</ele>
        <time>2019-11-01T11:43:32Z</time>
      </trkpt>
      <trkpt lat="43.94751" lon="5.30438">
        <ele>457.79998779297</ele>
        <time>2019-11-01T11:43:44Z</time>
      </trkpt>
      <trkpt lat="43.94733" lon="5.30424">
        <ele>455.39999389648</ele>
        <time>2019-11-01T11:44:06Z</time>
      </trkpt>
      <trkpt lat="43.94721" lon="5.30407">
        <ele>453.60000610352</ele>
        <time>2019-11-01T11:44:25Z</time>
      </trkpt>
      <trkpt lat="43.94707" lon="5.30398">
        <ele>451.39999389648</ele>
        <time>2019-11-01T11:44:44Z</time>
      </trkpt>
      <trkpt lat="43.94694" lon="5.3038">
        <ele>449.79998779297</ele>
        <time>2019-11-01T11:45:05Z</time>
      </trkpt>
      <trkpt lat="43.94687" lon="5.3037">
        <ele>449</ele>
        <time>2019-11-01T11:45:20Z</time>
      </trkpt>
      <trkpt lat="43.94677" lon="5.30359">
        <ele>448.60000610352</ele>
        <time>2019-11-01T11:45:37Z</time>
      </trkpt>
      <trkpt lat="43.94667" lon="5.30353">
        <ele>447.39999389648</ele>
        <time>2019-11-01T11:45:54Z</time>
      </trkpt>
      <trkpt lat="43.94664" lon="5.3034">
        <ele>446.60000610352</ele>
        <time>2019-11-01T11:46:07Z</time>
      </trkpt>
      <trkpt lat="43.94652" lon="5.30327">
        <ele>445</ele>
        <time>2019-11-01T11:46:25Z</time>
      </trkpt>
      <trkpt lat="43.9464" lon="5.30313">
        <ele>444.20001220703</ele>
        <time>2019-11-01T11:46:46Z</time>
      </trkpt>
      <trkpt lat="43.9463" lon="5.30303">
        <ele>442.79998779297</ele>
        <time>2019-11-01T11:47:03Z</time>
      </trkpt>
      <trkpt lat="43.94622" lon="5.30292">
        <ele>442</ele>
        <time>2019-11-01T11:47:21Z</time>
      </trkpt>
      <trkpt lat="43.94612" lon="5.30284">
        <ele>441</ele>
        <time>2019-11-01T11:47:39Z</time>
      </trkpt>
      <trkpt lat="43.94603" lon="5.30266">
        <ele>440.20001220703</ele>
        <time>2019-11-01T11:47:59Z</time>
      </trkpt>
      <trkpt lat="43.94591" lon="5.30255">
        <ele>439.20001220703</ele>
        <time>2019-11-01T11:48:18Z</time>
      </trkpt>
      <trkpt lat="43.94582" lon="5.30242">
        <ele>438.20001220703</ele>
        <time>2019-11-01T11:48:35Z</time>
      </trkpt>
      <trkpt lat="43.94575" lon="5.30231">
        <ele>437.20001220703</ele>
        <time>2019-11-01T11:48:49Z</time>
      </trkpt>
      <trkpt lat="43.94565" lon="5.30218">
        <ele>435.79998779297</ele>
        <time>2019-11-01T11:49:07Z</time>
      </trkpt>
      <trkpt lat="43.94554" lon="5.30204">
        <ele>434</ele>
        <time>2019-11-01T11:49:27Z</time>
      </trkpt>
      <trkpt lat="43.94545" lon="5.30192">
        <ele>432.60000610352</ele>
        <time>2019-11-01T11:49:44Z</time>
      </trkpt>
      <trkpt lat="43.94543" lon="5.30175">
        <ele>431.60000610352</ele>
        <time>2019-11-01T11:50:00Z</time>
      </trkpt>
      <trkpt lat="43.94536" lon="5.30161">
        <ele>431</ele>
        <time>2019-11-01T11:50:16Z</time>
      </trkpt>
      <trkpt lat="43.94528" lon="5.30151">
        <ele>429.79998779297</ele>
        <time>2019-11-01T11:50:32Z</time>
      </trkpt>
      <trkpt lat="43.94521" lon="5.30142">
        <ele>428.79998779297</ele>
        <time>2019-11-01T11:50:46Z</time>
      </trkpt>
      <trkpt lat="43.94509" lon="5.30134">
        <ele>427.60000610352</ele>
        <time>2019-11-01T11:51:06Z</time>
      </trkpt>
      <trkpt lat="43.94499" lon="5.30124">
        <ele>426.39999389648</ele>
        <time>2019-11-01T11:51:22Z</time>
      </trkpt>
      <trkpt lat="43.94489" lon="5.30108">
        <ele>424</ele>
        <time>2019-11-01T11:51:43Z</time>
      </trkpt>
      <trkpt lat="43.94487" lon="5.30096">
        <ele>423</ele>
        <time>2019-11-01T11:51:59Z</time>
      </trkpt>
      <trkpt lat="43.94482" lon="5.30089">
        <ele>421.20001220703</ele>
        <time>2019-11-01T11:52:12Z</time>
      </trkpt>
      <trkpt lat="43.94473" lon="5.30078">
        <ele>419.20001220703</ele>
        <time>2019-11-01T11:52:31Z</time>
      </trkpt>
      <trkpt lat="43.9447" lon="5.30077">
        <ele>418.60000610352</ele>
        <time>2019-11-01T11:52:54Z</time>
      </trkpt>
      <trkpt lat="43.9446" lon="5.30075">
        <ele>418.39999389648</ele>
        <time>2019-11-01T11:53:09Z</time>
      </trkpt>
      <trkpt lat="43.94448" lon="5.30063">
        <ele>418</ele>
        <time>2019-11-01T11:53:29Z</time>
      </trkpt>
      <trkpt lat="43.94435" lon="5.3005">
        <ele>416.79998779297</ele>
        <time>2019-11-01T11:53:48Z</time>
      </trkpt>
      <trkpt lat="43.94433" lon="5.30048">
        <ele>416.60000610352</ele>
        <time>2019-11-01T11:53:50Z</time>
      </trkpt>
      <trkpt lat="43.94425" lon="5.30033">
        <ele>415.79998779297</ele>
        <time>2019-11-01T11:54:07Z</time>
      </trkpt>
      <trkpt lat="43.94419" lon="5.30026">
        <ele>414.79998779297</ele>
        <time>2019-11-01T11:54:20Z</time>
      </trkpt>
      <trkpt lat="43.9441" lon="5.30015">
        <ele>413.79998779297</ele>
        <time>2019-11-01T11:54:37Z</time>
      </trkpt>
      <trkpt lat="43.94405" lon="5.30005">
        <ele>413.39999389648</ele>
        <time>2019-11-01T11:54:50Z</time>
      </trkpt>
      <trkpt lat="43.94403" lon="5.30004">
        <ele>412.60000610352</ele>
        <time>2019-11-01T11:55:18Z</time>
      </trkpt>
      <trkpt lat="43.94397" lon="5.29994">
        <ele>412</ele>
        <time>2019-11-01T11:55:47Z</time>
      </trkpt>
      <trkpt lat="43.94386" lon="5.29978">
        <ele>410.60000610352</ele>
        <time>2019-11-01T11:56:04Z</time>
      </trkpt>
      <trkpt lat="43.94369" lon="5.29964">
        <ele>409.20001220703</ele>
        <time>2019-11-01T11:56:24Z</time>
      </trkpt>
      <trkpt lat="43.94363" lon="5.29951">
        <ele>408.20001220703</ele>
        <time>2019-11-01T11:56:39Z</time>
      </trkpt>
      <trkpt lat="43.9436" lon="5.29948">
        <ele>408</ele>
        <time>2019-11-01T11:56:46Z</time>
      </trkpt>
      <trkpt lat="43.94356" lon="5.29947">
        <ele>407.79998779297</ele>
        <time>2019-11-01T11:56:50Z</time>
      </trkpt>
      <trkpt lat="43.94345" lon="5.2993">
        <ele>407.39999389648</ele>
        <time>2019-11-01T11:57:07Z</time>
      </trkpt>
      <trkpt lat="43.94332" lon="5.29912">
        <ele>406</ele>
        <time>2019-11-01T11:57:28Z</time>
      </trkpt>
      <trkpt lat="43.94319" lon="5.29902">
        <ele>404</ele>
        <time>2019-11-01T11:57:46Z</time>
      </trkpt>
      <trkpt lat="43.94307" lon="5.29888">
        <ele>402.39999389648</ele>
        <time>2019-11-01T11:58:02Z</time>
      </trkpt>
      <trkpt lat="43.94299" lon="5.2987">
        <ele>400.79998779297</ele>
        <time>2019-11-01T11:58:18Z</time>
      </trkpt>
      <trkpt lat="43.94291" lon="5.29858">
        <ele>400.20001220703</ele>
        <time>2019-11-01T11:58:32Z</time>
      </trkpt>
      <trkpt lat="43.94289" lon="5.29858">
        <ele>400.20001220703</ele>
        <time>2019-11-01T11:58:34Z</time>
      </trkpt>
      <trkpt lat="43.94277" lon="5.29849">
        <ele>399.20001220703</ele>
        <time>2019-11-01T11:58:49Z</time>
      </trkpt>
      <trkpt lat="43.94266" lon="5.29836">
        <ele>397.79998779297</ele>
        <time>2019-11-01T11:59:05Z</time>
      </trkpt>
      <trkpt lat="43.9426" lon="5.29815">
        <ele>397</ele>
        <time>2019-11-01T11:59:24Z</time>
      </trkpt>
      <trkpt lat="43.94253" lon="5.29802">
        <ele>395.39999389648</ele>
        <time>2019-11-01T11:59:39Z</time>
      </trkpt>
      <trkpt lat="43.94247" lon="5.29797">
        <ele>394.60000610352</ele>
        <time>2019-11-01T11:59:54Z</time>
      </trkpt>
      <trkpt lat="43.9424" lon="5.29804">
        <ele>394.60000610352</ele>
        <time>2019-11-01T12:00:11Z</time>
      </trkpt>
      <trkpt lat="43.94233" lon="5.29794">
        <ele>394.39999389648</ele>
        <time>2019-11-01T12:00:22Z</time>
      </trkpt>
      <trkpt lat="43.94223" lon="5.2978">
        <ele>393.39999389648</ele>
        <time>2019-11-01T12:00:36Z</time>
      </trkpt>
      <trkpt lat="43.94209" lon="5.2977">
        <ele>391.79998779297</ele>
        <time>2019-11-01T12:00:54Z</time>
      </trkpt>
      <trkpt lat="43.94205" lon="5.29762">
        <ele>390.79998779297</ele>
        <time>2019-11-01T12:01:09Z</time>
      </trkpt>
      <trkpt lat="43.94201" lon="5.29747">
        <ele>390.60000610352</ele>
        <time>2019-11-01T12:01:24Z</time>
      </trkpt>
      <trkpt lat="43.94193" lon="5.29734">
        <ele>389.20001220703</ele>
        <time>2019-11-01T12:01:39Z</time>
      </trkpt>
      <trkpt lat="43.94183" lon="5.29727">
        <ele>387.79998779297</ele>
        <time>2019-11-01T12:01:53Z</time>
      </trkpt>
      <trkpt lat="43.94172" lon="5.2972">
        <ele>386.60000610352</ele>
        <time>2019-11-01T12:02:09Z</time>
      </trkpt>
      <trkpt lat="43.94169" lon="5.29707">
        <ele>385.60000610352</ele>
        <time>2019-11-01T12:02:25Z</time>
      </trkpt>
      <trkpt lat="43.94164" lon="5.29705">
        <ele>385.39999389648</ele>
        <time>2019-11-01T12:02:32Z</time>
      </trkpt>
      <trkpt lat="43.94156" lon="5.29698">
        <ele>384.79998779297</ele>
        <time>2019-11-01T12:02:46Z</time>
      </trkpt>
      <trkpt lat="43.9415" lon="5.29685">
        <ele>383.79998779297</ele>
        <time>2019-11-01T12:02:59Z</time>
      </trkpt>
      <trkpt lat="43.94145" lon="5.29664">
        <ele>383.20001220703</ele>
        <time>2019-11-01T12:03:17Z</time>
      </trkpt>
      <trkpt lat="43.94143" lon="5.2966">
        <ele>382.39999389648</ele>
        <time>2019-11-01T12:03:21Z</time>
      </trkpt>
      <trkpt lat="43.94141" lon="5.29653">
        <ele>381.79998779297</ele>
        <time>2019-11-01T12:03:27Z</time>
      </trkpt>
      <trkpt lat="43.94132" lon="5.29633">
        <ele>380.79998779297</ele>
        <time>2019-11-01T12:03:44Z</time>
      </trkpt>
      <trkpt lat="43.94125" lon="5.29622">
        <ele>379.79998779297</ele>
        <time>2019-11-01T12:03:56Z</time>
      </trkpt>
      <trkpt lat="43.9412" lon="5.29611">
        <ele>379.20001220703</ele>
        <time>2019-11-01T12:04:07Z</time>
      </trkpt>
      <trkpt lat="43.94111" lon="5.29594">
        <ele>378</ele>
        <time>2019-11-01T12:04:23Z</time>
      </trkpt>
      <trkpt lat="43.94103" lon="5.29575">
        <ele>377.20001220703</ele>
        <time>2019-11-01T12:04:40Z</time>
      </trkpt>
      <trkpt lat="43.94102" lon="5.29574">
        <ele>377.20001220703</ele>
        <time>2019-11-01T12:04:41Z</time>
      </trkpt>
      <trkpt lat="43.9409" lon="5.29555">
        <ele>375.60000610352</ele>
        <time>2019-11-01T12:05:00Z</time>
      </trkpt>
      <trkpt lat="43.9409" lon="5.29554">
        <ele>375.60000610352</ele>
        <time>2019-11-01T12:05:01Z</time>
      </trkpt>
      <trkpt lat="43.94082" lon="5.29538">
        <ele>374.60000610352</ele>
        <time>2019-11-01T12:05:16Z</time>
      </trkpt>
      <trkpt lat="43.94072" lon="5.29525">
        <ele>373.39999389648</ele>
        <time>2019-11-01T12:05:31Z</time>
      </trkpt>
      <trkpt lat="43.9407" lon="5.29515">
        <ele>373</ele>
        <time>2019-11-01T12:05:39Z</time>
      </trkpt>
      <trkpt lat="43.94068" lon="5.295">
        <ele>372.79998779297</ele>
        <time>2019-11-01T12:05:50Z</time>
      </trkpt>
      <trkpt lat="43.94068" lon="5.29498">
        <ele>372.79998779297</ele>
        <time>2019-11-01T12:05:52Z</time>
      </trkpt>
      <trkpt lat="43.94055" lon="5.29481">
        <ele>373</ele>
        <time>2019-11-01T12:06:10Z</time>
      </trkpt>
      <trkpt lat="43.94047" lon="5.29469">
        <ele>372.79998779297</ele>
        <time>2019-11-01T12:06:29Z</time>
      </trkpt>
      <trkpt lat="43.94042" lon="5.29462">
        <ele>371.39999389648</ele>
        <time>2019-11-01T12:06:44Z</time>
      </trkpt>
      <trkpt lat="43.94032" lon="5.29467">
        <ele>368.79998779297</ele>
        <time>2019-11-01T12:07:02Z</time>
      </trkpt>
      <trkpt lat="43.94032" lon="5.2947">
        <ele>368.79998779297</ele>
        <time>2019-11-01T12:07:05Z</time>
      </trkpt>
      <trkpt lat="43.94029" lon="5.29483">
        <ele>368</ele>
        <time>2019-11-01T12:07:18Z</time>
      </trkpt>
      <trkpt lat="43.94016" lon="5.29484">
        <ele>367</ele>
        <time>2019-11-01T12:07:36Z</time>
      </trkpt>
      <trkpt lat="43.94008" lon="5.29471">
        <ele>365.39999389648</ele>
        <time>2019-11-01T12:07:53Z</time>
      </trkpt>
      <trkpt lat="43.94004" lon="5.29454">
        <ele>363</ele>
        <time>2019-11-01T12:08:10Z</time>
      </trkpt>
      <trkpt lat="43.93995" lon="5.29436">
        <ele>360.79998779297</ele>
        <time>2019-11-01T12:08:28Z</time>
      </trkpt>
      <trkpt lat="43.93993" lon="5.29432">
        <ele>360.60000610352</ele>
        <time>2019-11-01T12:08:31Z</time>
      </trkpt>
      <trkpt lat="43.9398" lon="5.29412">
        <ele>360.39999389648</ele>
        <time>2019-11-01T12:08:52Z</time>
      </trkpt>
      <trkpt lat="43.93976" lon="5.29395">
        <ele>360</ele>
        <time>2019-11-01T12:09:07Z</time>
      </trkpt>
      <trkpt lat="43.93976" lon="5.29384">
        <ele>359.39999389648</ele>
        <time>2019-11-01T12:09:17Z</time>
      </trkpt>
      <trkpt lat="43.93972" lon="5.29368">
        <ele>358</ele>
        <time>2019-11-01T12:09:32Z</time>
      </trkpt>
      <trkpt lat="43.93969" lon="5.29348">
        <ele>357</ele>
        <time>2019-11-01T12:09:52Z</time>
      </trkpt>
      <trkpt lat="43.93971" lon="5.29335">
        <ele>354.60000610352</ele>
        <time>2019-11-01T12:10:07Z</time>
      </trkpt>
      <trkpt lat="43.93971" lon="5.29317">
        <ele>352.20001220703</ele>
        <time>2019-11-01T12:10:23Z</time>
      </trkpt>
      <trkpt lat="43.9397" lon="5.29299">
        <ele>349.79998779297</ele>
        <time>2019-11-01T12:10:42Z</time>
      </trkpt>
      <trkpt lat="43.93968" lon="5.29279">
        <ele>347.39999389648</ele>
        <time>2019-11-01T12:11:01Z</time>
      </trkpt>
      <trkpt lat="43.93966" lon="5.29261">
        <ele>345</ele>
        <time>2019-11-01T12:11:18Z</time>
      </trkpt>
      <trkpt lat="43.93969" lon="5.29247">
        <ele>343.60000610352</ele>
        <time>2019-11-01T12:11:35Z</time>
      </trkpt>
      <trkpt lat="43.93968" lon="5.29238">
        <ele>342.39999389648</ele>
        <time>2019-11-01T12:11:43Z</time>
      </trkpt>
      <trkpt lat="43.93965" lon="5.29218">
        <ele>340.20001220703</ele>
        <time>2019-11-01T12:12:01Z</time>
      </trkpt>
      <trkpt lat="43.93966" lon="5.29211">
        <ele>339.79998779297</ele>
        <time>2019-11-01T12:12:16Z</time>
      </trkpt>
      <trkpt lat="43.93963" lon="5.29201">
        <ele>339.79998779297</ele>
        <time>2019-11-01T12:12:35Z</time>
      </trkpt>
      <trkpt lat="43.93963" lon="5.292">
        <ele>339.79998779297</ele>
        <time>2019-11-01T12:12:36Z</time>
      </trkpt>
      <trkpt lat="43.93952" lon="5.29185">
        <ele>341</ele>
        <time>2019-11-01T12:12:53Z</time>
      </trkpt>
      <trkpt lat="43.93946" lon="5.29171">
        <ele>341.20001220703</ele>
        <time>2019-11-01T12:13:05Z</time>
      </trkpt>
      <trkpt lat="43.93944" lon="5.29166">
        <ele>341.39999389648</ele>
        <time>2019-11-01T12:13:09Z</time>
      </trkpt>
      <trkpt lat="43.93932" lon="5.2914">
        <ele>341.79998779297</ele>
        <time>2019-11-01T12:13:32Z</time>
      </trkpt>
      <trkpt lat="43.93924" lon="5.29119">
        <ele>342.20001220703</ele>
        <time>2019-11-01T12:13:50Z</time>
      </trkpt>
      <trkpt lat="43.93925" lon="5.29115">
        <ele>342.20001220703</ele>
        <time>2019-11-01T12:13:56Z</time>
      </trkpt>
      <trkpt lat="43.93936" lon="5.291">
        <ele>343.20001220703</ele>
        <time>2019-11-01T12:14:14Z</time>
      </trkpt>
      <trkpt lat="43.93935" lon="5.29102">
        <ele>343.39999389648</ele>
        <time>2019-11-01T12:14:28Z</time>
      </trkpt>
      <trkpt lat="43.93934" lon="5.29103">
        <ele>343.39999389648</ele>
        <time>2019-11-01T12:14:29Z</time>
      </trkpt>
      <trkpt lat="43.93932" lon="5.29105">
        <ele>343.39999389648</ele>
        <time>2019-11-01T12:14:32Z</time>
      </trkpt>
      <trkpt lat="43.93928" lon="5.29108">
        <ele>343.39999389648</ele>
        <time>2019-11-01T12:14:36Z</time>
      </trkpt>
      <trkpt lat="43.93926" lon="5.29118">
        <ele>343.39999389648</ele>
        <time>2019-11-01T12:14:43Z</time>
      </trkpt>
      <trkpt lat="43.93932" lon="5.29139">
        <ele>342.39999389648</ele>
        <time>2019-11-01T12:14:58Z</time>
      </trkpt>
      <trkpt lat="43.93935" lon="5.29147">
        <ele>342.20001220703</ele>
        <time>2019-11-01T12:15:05Z</time>
      </trkpt>
      <trkpt lat="43.93943" lon="5.29167">
        <ele>342</ele>
        <time>2019-11-01T12:15:21Z</time>
      </trkpt>
      <trkpt lat="43.93953" lon="5.29187">
        <ele>341.60000610352</ele>
        <time>2019-11-01T12:15:37Z</time>
      </trkpt>
      <trkpt lat="43.93962" lon="5.29201">
        <ele>341.39999389648</ele>
        <time>2019-11-01T12:15:53Z</time>
      </trkpt>
      <trkpt lat="43.93968" lon="5.29206">
        <ele>340.79998779297</ele>
        <time>2019-11-01T12:16:00Z</time>
      </trkpt>
      <trkpt lat="43.93976" lon="5.29217">
        <ele>339.60000610352</ele>
        <time>2019-11-01T12:16:13Z</time>
      </trkpt>
      <trkpt lat="43.93977" lon="5.29218">
        <ele>339.39999389648</ele>
        <time>2019-11-01T12:16:14Z</time>
      </trkpt>
      <trkpt lat="43.93985" lon="5.29234">
        <ele>337.60000610352</ele>
        <time>2019-11-01T12:16:30Z</time>
      </trkpt>
      <trkpt lat="43.93995" lon="5.29251">
        <ele>335.60000610352</ele>
        <time>2019-11-01T12:16:47Z</time>
      </trkpt>
      <trkpt lat="43.94002" lon="5.2927">
        <ele>333.39999389648</ele>
        <time>2019-11-01T12:17:07Z</time>
      </trkpt>
      <trkpt lat="43.94009" lon="5.29284">
        <ele>331.79998779297</ele>
        <time>2019-11-01T12:17:20Z</time>
      </trkpt>
      <trkpt lat="43.94018" lon="5.29303">
        <ele>330.39999389648</ele>
        <time>2019-11-01T12:17:36Z</time>
      </trkpt>
      <trkpt lat="43.94027" lon="5.29319">
        <ele>328.79998779297</ele>
        <time>2019-11-01T12:17:50Z</time>
      </trkpt>
      <trkpt lat="43.94038" lon="5.29339">
        <ele>327</ele>
        <time>2019-11-01T12:18:07Z</time>
      </trkpt>
      <trkpt lat="43.94052" lon="5.29357">
        <ele>325.20001220703</ele>
        <time>2019-11-01T12:18:24Z</time>
      </trkpt>
      <trkpt lat="43.94058" lon="5.29374">
        <ele>323.60000610352</ele>
        <time>2019-11-01T12:18:39Z</time>
      </trkpt>
      <trkpt lat="43.94062" lon="5.29381">
        <ele>322.79998779297</ele>
        <time>2019-11-01T12:18:54Z</time>
      </trkpt>
      <trkpt lat="43.94064" lon="5.29385">
        <ele>322.39999389648</ele>
        <time>2019-11-01T12:19:09Z</time>
      </trkpt>
      <trkpt lat="43.94071" lon="5.29403">
        <ele>321.79998779297</ele>
        <time>2019-11-01T12:19:26Z</time>
      </trkpt>
      <trkpt lat="43.9408" lon="5.29418">
        <ele>320.79998779297</ele>
        <time>2019-11-01T12:19:41Z</time>
      </trkpt>
      <trkpt lat="43.94095" lon="5.29443">
        <ele>318.39999389648</ele>
        <time>2019-11-01T12:20:01Z</time>
      </trkpt>
      <trkpt lat="43.94105" lon="5.29459">
        <ele>316</ele>
        <time>2019-11-01T12:20:18Z</time>
      </trkpt>
      <trkpt lat="43.94113" lon="5.29477">
        <ele>314</ele>
        <time>2019-11-01T12:20:35Z</time>
      </trkpt>
      <trkpt lat="43.94128" lon="5.295">
        <ele>311.39999389648</ele>
        <time>2019-11-01T12:20:56Z</time>
      </trkpt>
      <trkpt lat="43.9414" lon="5.29518">
        <ele>310.20001220703</ele>
        <time>2019-11-01T12:21:12Z</time>
      </trkpt>
      <trkpt lat="43.94149" lon="5.29531">
        <ele>309.79998779297</ele>
        <time>2019-11-01T12:21:27Z</time>
      </trkpt>
      <trkpt lat="43.94169" lon="5.29556">
        <ele>310.39999389648</ele>
        <time>2019-11-01T12:21:50Z</time>
      </trkpt>
      <trkpt lat="43.94172" lon="5.29566">
        <ele>310.79998779297</ele>
        <time>2019-11-01T12:21:58Z</time>
      </trkpt>
      <trkpt lat="43.94182" lon="5.29588">
        <ele>311.39999389648</ele>
        <time>2019-11-01T12:22:15Z</time>
      </trkpt>
      <trkpt lat="43.94191" lon="5.29609">
        <ele>311.79998779297</ele>
        <time>2019-11-01T12:22:31Z</time>
      </trkpt>
      <trkpt lat="43.94202" lon="5.29629">
        <ele>311</ele>
        <time>2019-11-01T12:22:50Z</time>
      </trkpt>
      <trkpt lat="43.94212" lon="5.29645">
        <ele>309.20001220703</ele>
        <time>2019-11-01T12:23:06Z</time>
      </trkpt>
      <trkpt lat="43.94218" lon="5.29656">
        <ele>308</ele>
        <time>2019-11-01T12:23:15Z</time>
      </trkpt>
      <trkpt lat="43.9422" lon="5.29661">
        <ele>307.60000610352</ele>
        <time>2019-11-01T12:23:18Z</time>
      </trkpt>
      <trkpt lat="43.94234" lon="5.29673">
        <ele>306</ele>
        <time>2019-11-01T12:23:33Z</time>
      </trkpt>
      <trkpt lat="43.9424" lon="5.29677">
        <ele>305.20001220703</ele>
        <time>2019-11-01T12:23:47Z</time>
      </trkpt>
      <trkpt lat="43.94241" lon="5.29688">
        <ele>305</ele>
        <time>2019-11-01T12:24:09Z</time>
      </trkpt>
      <trkpt lat="43.94249" lon="5.29712">
        <ele>304.79998779297</ele>
        <time>2019-11-01T12:24:31Z</time>
      </trkpt>
      <trkpt lat="43.94264" lon="5.29731">
        <ele>304.79998779297</ele>
        <time>2019-11-01T12:24:52Z</time>
      </trkpt>
      <trkpt lat="43.94282" lon="5.29748">
        <ele>305</ele>
        <time>2019-11-01T12:25:11Z</time>
      </trkpt>
      <trkpt lat="43.94297" lon="5.29762">
        <ele>304.79998779297</ele>
        <time>2019-11-01T12:25:28Z</time>
      </trkpt>
      <trkpt lat="43.94315" lon="5.29779">
        <ele>304.20001220703</ele>
        <time>2019-11-01T12:25:48Z</time>
      </trkpt>
      <trkpt lat="43.94325" lon="5.29784">
        <ele>304.20001220703</ele>
        <time>2019-11-01T12:26:02Z</time>
      </trkpt>
      <trkpt lat="43.9434" lon="5.29799">
        <ele>304.79998779297</ele>
        <time>2019-11-01T12:26:26Z</time>
      </trkpt>
      <trkpt lat="43.94354" lon="5.29821">
        <ele>306</ele>
        <time>2019-11-01T12:26:46Z</time>
      </trkpt>
      <trkpt lat="43.94373" lon="5.29844">
        <ele>307.20001220703</ele>
        <time>2019-11-01T12:27:10Z</time>
      </trkpt>
      <trkpt lat="43.94388" lon="5.2987">
        <ele>308.39999389648</ele>
        <time>2019-11-01T12:27:34Z</time>
      </trkpt>
      <trkpt lat="43.94402" lon="5.29897">
        <ele>309.79998779297</ele>
        <time>2019-11-01T12:27:58Z</time>
      </trkpt>
      <trkpt lat="43.94416" lon="5.29926">
        <ele>311</ele>
        <time>2019-11-01T12:28:21Z</time>
      </trkpt>
      <trkpt lat="43.9442" lon="5.29931">
        <ele>311</ele>
        <time>2019-11-01T12:28:25Z</time>
      </trkpt>
      <trkpt lat="43.94441" lon="5.29957">
        <ele>312.20001220703</ele>
        <time>2019-11-01T12:28:47Z</time>
      </trkpt>
      <trkpt lat="43.94445" lon="5.29966">
        <ele>312.60000610352</ele>
        <time>2019-11-01T12:28:55Z</time>
      </trkpt>
      <trkpt lat="43.94453" lon="5.29983">
        <ele>313.39999389648</ele>
        <time>2019-11-01T12:29:11Z</time>
      </trkpt>
      <trkpt lat="43.94458" lon="5.29988">
        <ele>313.60000610352</ele>
        <time>2019-11-01T12:29:15Z</time>
      </trkpt>
      <trkpt lat="43.94468" lon="5.3001">
        <ele>314.39999389648</ele>
        <time>2019-11-01T12:29:31Z</time>
      </trkpt>
      <trkpt lat="43.94478" lon="5.30026">
        <ele>315.20001220703</ele>
        <time>2019-11-01T12:29:46Z</time>
      </trkpt>
      <trkpt lat="43.94492" lon="5.30043">
        <ele>316.20001220703</ele>
        <time>2019-11-01T12:30:03Z</time>
      </trkpt>
      <trkpt lat="43.94499" lon="5.30047">
        <ele>316.39999389648</ele>
        <time>2019-11-01T12:30:09Z</time>
      </trkpt>
      <trkpt lat="43.9452" lon="5.30061">
        <ele>318.20001220703</ele>
        <time>2019-11-01T12:30:30Z</time>
      </trkpt>
      <trkpt lat="43.94526" lon="5.30062">
        <ele>318.60000610352</ele>
        <time>2019-11-01T12:30:36Z</time>
      </trkpt>
      <trkpt lat="43.94554" lon="5.30058">
        <ele>320.20001220703</ele>
        <time>2019-11-01T12:30:57Z</time>
      </trkpt>
      <trkpt lat="43.94555" lon="5.30057">
        <ele>320.20001220703</ele>
        <time>2019-11-01T12:30:58Z</time>
      </trkpt>
      <trkpt lat="43.94567" lon="5.30053">
        <ele>321.60000610352</ele>
        <time>2019-11-01T12:31:11Z</time>
      </trkpt>
      <trkpt lat="43.94591" lon="5.30043">
        <ele>323.20001220703</ele>
        <time>2019-11-01T12:31:32Z</time>
      </trkpt>
      <trkpt lat="43.94618" lon="5.30031">
        <ele>325.20001220703</ele>
        <time>2019-11-01T12:31:57Z</time>
      </trkpt>
      <trkpt lat="43.94622" lon="5.30027">
        <ele>326.20001220703</ele>
        <time>2019-11-01T12:32:14Z</time>
      </trkpt>
      <trkpt lat="43.94633" lon="5.30026">
        <ele>326.39999389648</ele>
        <time>2019-11-01T12:32:35Z</time>
      </trkpt>
      <trkpt lat="43.94644" lon="5.30038">
        <ele>327.20001220703</ele>
        <time>2019-11-01T12:32:50Z</time>
      </trkpt>
      <trkpt lat="43.94645" lon="5.30042">
        <ele>327.79998779297</ele>
        <time>2019-11-01T12:32:54Z</time>
      </trkpt>
      <trkpt lat="43.94648" lon="5.30048">
        <ele>328.39999389648</ele>
        <time>2019-11-01T12:33:00Z</time>
      </trkpt>
      <trkpt lat="43.94648" lon="5.30059">
        <ele>329.60000610352</ele>
        <time>2019-11-01T12:33:09Z</time>
      </trkpt>
      <trkpt lat="43.94633" lon="5.30079">
        <ele>331</ele>
        <time>2019-11-01T12:33:30Z</time>
      </trkpt>
      <trkpt lat="43.94625" lon="5.30087">
        <ele>331.60000610352</ele>
        <time>2019-11-01T12:33:39Z</time>
      </trkpt>
      <trkpt lat="43.94612" lon="5.3011">
        <ele>332.60000610352</ele>
        <time>2019-11-01T12:33:55Z</time>
      </trkpt>
      <trkpt lat="43.94606" lon="5.30129">
        <ele>333.20001220703</ele>
        <time>2019-11-01T12:34:16Z</time>
      </trkpt>
      <trkpt lat="43.94617" lon="5.30139">
        <ele>333.79998779297</ele>
        <time>2019-11-01T12:34:40Z</time>
      </trkpt>
      <trkpt lat="43.94624" lon="5.30144">
        <ele>334.39999389648</ele>
        <time>2019-11-01T12:34:54Z</time>
      </trkpt>
      <trkpt lat="43.94638" lon="5.30139">
        <ele>335.39999389648</ele>
        <time>2019-11-01T12:35:09Z</time>
      </trkpt>
      <trkpt lat="43.9465" lon="5.3014">
        <ele>336.39999389648</ele>
        <time>2019-11-01T12:35:29Z</time>
      </trkpt>
      <trkpt lat="43.94649" lon="5.3014">
        <ele>336.39999389648</ele>
        <time>2019-11-01T12:35:34Z</time>
      </trkpt>
      <trkpt lat="43.94651" lon="5.30167">
        <ele>338</ele>
        <time>2019-11-01T12:36:00Z</time>
      </trkpt>
      <trkpt lat="43.9467" lon="5.3017">
        <ele>340.39999389648</ele>
        <time>2019-11-01T12:36:24Z</time>
      </trkpt>
      <trkpt lat="43.94671" lon="5.3017">
        <ele>393</ele>
        <time>2019-11-01T12:36:29Z</time>
      </trkpt>
    </trkseg>
  </trk>
</gpx>